sensor_id;sensor_type;location;lat;lon;timestamp;pressure;altitude;pressure_sealevel;temperature;humidity
8334;BME280;4204;43.004;23.052;2023-02-02T00:01:45;93847.59;;;2.37;100.00
8334;BME280;4204;43.004;23.052;2023-02-02T00:04:15;93854.91;;;2.40;100.00
8334;BME280;4204;43.004;23.052;2023-02-02T00:06:45;93859.94;;;2.42;100.00
8334;BME280;4204;43.004;23.052;2023-02-02T00:09:17;93854.16;;;2.40;100.00
8334;BME280;4204;43.004;23.052;2023-02-02T00:11:46;93848.63;;;2.41;100.00
8334;BME280;4204;43.004;23.052;2023-02-02T00:14:15;93851.53;;;2.40;100.00
8334;BME280;4204;43.004;23.052;2023-02-02T00:16:44;93843.09;;;2.38;100.00
8334;BME280;4204;43.004;23.052;2023-02-02T00:19:14;93833.69;;;2.42;100.00
8334;BME280;4204;43.004;23.052;2023-02-02T00:21:42;93832.34;;;2.44;100.00
8334;BME280;4204;43.004;23.052;2023-02-02T00:24:13;93835.25;;;2.43;100.00
8334;BME280;4204;43.004;23.052;2023-02-02T00:26:44;93820.53;;;2.37;100.00
8334;BME280;4204;43.004;23.052;2023-02-02T00:29:15;93822.38;;;2.36;100.00
8334;BME280;4204;43.004;23.052;2023-02-02T00:31:44;93820.81;;;2.40;100.00
8334;BME280;4204;43.004;23.052;2023-02-02T00:34:11;93823.16;;;2.47;100.00
8334;BME280;4204;43.004;23.052;2023-02-02T00:36:40;93817.66;;;2.43;100.00
8334;BME280;4204;43.004;23.052;2023-02-02T00:39:09;93813.22;;;2.44;100.00
8334;BME280;4204;43.004;23.052;2023-02-02T00:41:38;93815.84;;;2.44;100.00
8334;BME280;4204;43.004;23.052;2023-02-02T00:44:06;93822.13;;;2.23;100.00
8334;BME280;4204;43.004;23.052;2023-02-02T00:46:51;93821.53;;;1.96;100.00
8334;BME280;4204;43.004;23.052;2023-02-02T00:49:19;93833.47;;;1.46;100.00
8334;BME280;4204;43.004;23.052;2023-02-02T00:51:47;93834.47;;;1.40;100.00
8334;BME280;4204;43.004;23.052;2023-02-02T00:54:15;93814.88;;;0.96;100.00
8334;BME280;4204;43.004;23.052;2023-02-02T00:56:44;93819.50;;;0.84;100.00
8334;BME280;4204;43.004;23.052;2023-02-02T00:59:12;93815.22;;;0.68;100.00
8334;BME280;4204;43.004;23.052;2023-02-02T01:01:39;93815.97;;;0.63;100.00
8334;BME280;4204;43.004;23.052;2023-02-02T01:04:07;93812.38;;;0.74;100.00
8334;BME280;4204;43.004;23.052;2023-02-02T01:06:35;93809.25;;;0.77;100.00
8334;BME280;4204;43.004;23.052;2023-02-02T01:09:03;93814.44;;;0.72;100.00
8334;BME280;4204;43.004;23.052;2023-02-02T01:11:30;93820.06;;;0.91;100.00
8334;BME280;4204;43.004;23.052;2023-02-02T01:14:00;93821.13;;;0.90;100.00
8334;BME280;4204;43.004;23.052;2023-02-02T01:16:27;93824.75;;;0.89;100.00
8334;BME280;4204;43.004;23.052;2023-02-02T01:18:55;93813.63;;;0.62;100.00
8334;BME280;4204;43.004;23.052;2023-02-02T01:21:23;93809.47;;;0.71;100.00
8334;BME280;4204;43.004;23.052;2023-02-02T01:23:50;93810.38;;;0.92;100.00
8334;BME280;4204;43.004;23.052;2023-02-02T01:26:18;93812.28;;;1.06;100.00
8334;BME280;4204;43.004;23.052;2023-02-02T01:28:46;93807.53;;;0.98;100.00
8334;BME280;4204;43.004;23.052;2023-02-02T01:31:17;93807.22;;;0.85;100.00
8334;BME280;4204;43.004;23.052;2023-02-02T01:33:46;93811.94;;;0.88;100.00
8334;BME280;4204;43.004;23.052;2023-02-02T01:36:15;93808.59;;;1.02;100.00
8334;BME280;4204;43.004;23.052;2023-02-02T01:38:44;93803.53;;;0.86;100.00
8334;BME280;4204;43.004;23.052;2023-02-02T01:41:13;93801.50;;;0.98;100.00
8334;BME280;4204;43.004;23.052;2023-02-02T01:43:52;93805.63;;;0.83;100.00
8334;BME280;4204;43.004;23.052;2023-02-02T01:46:24;93791.38;;;0.64;100.00
8334;BME280;4204;43.004;23.052;2023-02-02T01:48:57;93800.06;;;0.70;100.00
8334;BME280;4204;43.004;23.052;2023-02-02T01:51:30;93804.31;;;0.44;100.00
8334;BME280;4204;43.004;23.052;2023-02-02T01:53:59;93808.22;;;0.42;100.00
8334;BME280;4204;43.004;23.052;2023-02-02T01:56:31;93795.66;;;0.44;100.00
8334;BME280;4204;43.004;23.052;2023-02-02T01:58:59;93786.16;;;0.69;100.00
8334;BME280;4204;43.004;23.052;2023-02-02T02:01:29;93779.75;;;1.54;100.00
8334;BME280;4204;43.004;23.052;2023-02-02T02:03:57;93794.97;;;0.95;100.00
8334;BME280;4204;43.004;23.052;2023-02-02T02:06:27;93802.09;;;0.63;100.00
8334;BME280;4204;43.004;23.052;2023-02-02T02:08:56;93797.78;;;0.47;100.00
8334;BME280;4204;43.004;23.052;2023-02-02T02:11:26;93811.28;;;0.34;100.00
8334;BME280;4204;43.004;23.052;2023-02-02T02:13:55;93814.16;;;0.32;100.00
8334;BME280;4204;43.004;23.052;2023-02-02T02:16:51;93805.84;;;0.40;100.00
8334;BME280;4204;43.004;23.052;2023-02-02T02:23:11;93806.47;;;0.52;100.00
8334;BME280;4204;43.004;23.052;2023-02-02T02:26:26;93811.06;;;0.77;100.00
8334;BME280;4204;43.004;23.052;2023-02-02T02:29:37;93813.16;;;0.38;100.00
8334;BME280;4204;43.004;23.052;2023-02-02T02:32:39;93807.09;;;0.01;100.00
8334;BME280;4204;43.004;23.052;2023-02-02T02:35:12;93802.94;;;0.05;100.00
8334;BME280;4204;43.004;23.052;2023-02-02T02:37:49;93801.06;;;0.00;100.00
8334;BME280;4204;43.004;23.052;2023-02-02T02:40:22;93796.34;;;-0.03;100.00
8334;BME280;4204;43.004;23.052;2023-02-02T02:42:56;93797.81;;;0.15;100.00
8334;BME280;4204;43.004;23.052;2023-02-02T02:45:26;93792.97;;;0.29;100.00
8334;BME280;4204;43.004;23.052;2023-02-02T02:47:57;93800.34;;;0.37;100.00
8334;BME280;4204;43.004;23.052;2023-02-02T02:50:26;93801.81;;;0.23;100.00
8334;BME280;4204;43.004;23.052;2023-02-02T02:53:00;93796.03;;;0.21;100.00
8334;BME280;4204;43.004;23.052;2023-02-02T02:55:37;93797.13;;;0.25;100.00
8334;BME280;4204;43.004;23.052;2023-02-02T02:58:12;93792.38;;;0.22;100.00
8334;BME280;4204;43.004;23.052;2023-02-02T03:00:53;93797.75;;;0.42;100.00
8334;BME280;4204;43.004;23.052;2023-02-02T03:03:32;93795.34;;;0.35;100.00
8334;BME280;4204;43.004;23.052;2023-02-02T03:06:07;93799.19;;;0.23;100.00
8334;BME280;4204;43.004;23.052;2023-02-02T03:08:39;93806.25;;;0.22;100.00
8334;BME280;4204;43.004;23.052;2023-02-02T03:11:12;93804.91;;;0.20;100.00
8334;BME280;4204;43.004;23.052;2023-02-02T03:13:40;93815.31;;;0.15;100.00
8334;BME280;4204;43.004;23.052;2023-02-02T03:16:09;93816.28;;;0.04;100.00
8334;BME280;4204;43.004;23.052;2023-02-02T03:18:38;93807.63;;;0.03;100.00
8334;BME280;4204;43.004;23.052;2023-02-02T03:21:10;93802.59;;;-0.04;100.00
8334;BME280;4204;43.004;23.052;2023-02-02T03:23:38;93805.56;;;0.05;100.00
8334;BME280;4204;43.004;23.052;2023-02-02T03:26:06;93807.34;;;-0.01;100.00
8334;BME280;4204;43.004;23.052;2023-02-02T03:28:34;93806.66;;;0.09;100.00
8334;BME280;4204;43.004;23.052;2023-02-02T03:31:02;93808.47;;;0.09;100.00
8334;BME280;4204;43.004;23.052;2023-02-02T03:33:30;93807.03;;;0.23;100.00
8334;BME280;4204;43.004;23.052;2023-02-02T03:36:01;93809.81;;;0.48;100.00
8334;BME280;4204;43.004;23.052;2023-02-02T03:38:28;93803.69;;;0.64;100.00
8334;BME280;4204;43.004;23.052;2023-02-02T03:40:56;93802.69;;;0.07;100.00
8334;BME280;4204;43.004;23.052;2023-02-02T03:43:24;93799.25;;;-0.26;100.00
8334;BME280;4204;43.004;23.052;2023-02-02T03:45:56;93798.91;;;-0.34;100.00
8334;BME280;4204;43.004;23.052;2023-02-02T03:48:24;93797.38;;;-0.57;100.00
8334;BME280;4204;43.004;23.052;2023-02-02T03:50:51;93791.84;;;-0.60;100.00
8334;BME280;4204;43.004;23.052;2023-02-02T03:53:20;93792.88;;;-0.61;100.00
8334;BME280;4204;43.004;23.052;2023-02-02T03:55:48;93794.81;;;-0.73;100.00
8334;BME280;4204;43.004;23.052;2023-02-02T03:58:16;93795.19;;;-0.65;100.00
8334;BME280;4204;43.004;23.052;2023-02-02T04:00:47;93795.13;;;-0.70;100.00
8334;BME280;4204;43.004;23.052;2023-02-02T04:03:15;93793.56;;;-0.71;100.00
8334;BME280;4204;43.004;23.052;2023-02-02T04:05:42;93803.38;;;-0.78;100.00
8334;BME280;4204;43.004;23.052;2023-02-02T04:08:10;93798.78;;;-0.71;100.00
8334;BME280;4204;43.004;23.052;2023-02-02T04:10:42;93795.75;;;-0.63;100.00
8334;BME280;4204;43.004;23.052;2023-02-02T04:13:10;93805.06;;;-0.45;100.00
8334;BME280;4204;43.004;23.052;2023-02-02T04:15:37;93798.78;;;-0.71;100.00
8334;BME280;4204;43.004;23.052;2023-02-02T04:18:05;93801.75;;;-0.84;100.00
8334;BME280;4204;43.004;23.052;2023-02-02T04:20:33;93795.63;;;-0.73;100.00
8334;BME280;4204;43.004;23.052;2023-02-02T04:23:00;93806.53;;;-0.76;100.00
8334;BME280;4204;43.004;23.052;2023-02-02T04:25:28;93807.34;;;-0.54;100.00
8334;BME280;4204;43.004;23.052;2023-02-02T04:27:57;93807.47;;;-0.39;100.00
8334;BME280;4204;43.004;23.052;2023-02-02T04:30:24;93807.22;;;-0.37;100.00
8334;BME280;4204;43.004;23.052;2023-02-02T04:32:53;93804.28;;;-0.46;100.00
8334;BME280;4204;43.004;23.052;2023-02-02T04:35:21;93809.03;;;-0.64;100.00
8334;BME280;4204;43.004;23.052;2023-02-02T04:37:49;93815.34;;;-0.82;100.00
8334;BME280;4204;43.004;23.052;2023-02-02T04:40:17;93821.13;;;-0.80;100.00
8334;BME280;4204;43.004;23.052;2023-02-02T04:42:45;93813.03;;;-0.78;100.00
8334;BME280;4204;43.004;23.052;2023-02-02T04:45:14;93824.56;;;-0.74;100.00
8334;BME280;4204;43.004;23.052;2023-02-02T04:47:42;93816.44;;;-0.56;100.00
8334;BME280;4204;43.004;23.052;2023-02-02T04:50:10;93824.31;;;-0.51;100.00
8334;BME280;4204;43.004;23.052;2023-02-02T04:52:38;93813.16;;;-0.47;100.00
8334;BME280;4204;43.004;23.052;2023-02-02T04:55:07;93818.63;;;-0.48;100.00
8334;BME280;4204;43.004;23.052;2023-02-02T04:57:34;93817.53;;;-0.74;100.00
8334;BME280;4204;43.004;23.052;2023-02-02T05:00:02;93820.81;;;-0.84;100.00
8334;BME280;4204;43.004;23.052;2023-02-02T05:02:34;93824.78;;;-0.81;100.00
8334;BME280;4204;43.004;23.052;2023-02-02T05:05:02;93820.66;;;-1.15;100.00
8334;BME280;4204;43.004;23.052;2023-02-02T05:07:30;93830.25;;;-1.21;100.00
8334;BME280;4204;43.004;23.052;2023-02-02T05:09:57;93828.34;;;-1.25;100.00
8334;BME280;4204;43.004;23.052;2023-02-02T05:12:25;93841.81;;;-1.33;100.00
8334;BME280;4204;43.004;23.052;2023-02-02T05:14:53;93845.28;;;-1.44;100.00
8334;BME280;4204;43.004;23.052;2023-02-02T05:17:20;93847.03;;;-1.33;100.00
8334;BME280;4204;43.004;23.052;2023-02-02T05:19:49;93840.44;;;-1.19;100.00
8334;BME280;4204;43.004;23.052;2023-02-02T05:22:17;93843.69;;;-1.12;100.00
8334;BME280;4204;43.004;23.052;2023-02-02T05:24:44;93848.56;;;-1.16;100.00
8334;BME280;4204;43.004;23.052;2023-02-02T05:27:12;93846.88;;;-1.05;100.00
8334;BME280;4204;43.004;23.052;2023-02-02T05:29:40;93849.91;;;-1.13;100.00
8334;BME280;4204;43.004;23.052;2023-02-02T05:32:07;93855.09;;;-1.35;100.00
8334;BME280;4204;43.004;23.052;2023-02-02T05:34:35;93843.63;;;-0.96;100.00
8334;BME280;4204;43.004;23.052;2023-02-02T05:37:04;93849.59;;;-0.78;100.00
8334;BME280;4204;43.004;23.052;2023-02-02T05:39:31;93845.09;;;-1.21;100.00
8334;BME280;4204;43.004;23.052;2023-02-02T05:41:59;93846.88;;;-1.27;100.00
8334;BME280;4204;43.004;23.052;2023-02-02T05:44:27;93838.53;;;-1.24;100.00
8334;BME280;4204;43.004;23.052;2023-02-02T05:46:54;93826.75;;;-0.88;100.00
8334;BME280;4204;43.004;23.052;2023-02-02T05:49:22;93825.22;;;0.13;100.00
8334;BME280;4204;43.004;23.052;2023-02-02T05:51:52;93835.63;;;-0.46;100.00
8334;BME280;4204;43.004;23.052;2023-02-02T05:54:22;93841.25;;;-0.97;100.00
8334;BME280;4204;43.004;23.052;2023-02-02T05:56:51;93844.94;;;-1.15;100.00
8334;BME280;4204;43.004;23.052;2023-02-02T05:59:19;93848.56;;;-1.16;100.00
8334;BME280;4204;43.004;23.052;2023-02-02T06:01:47;93863.66;;;-1.18;100.00
8334;BME280;4204;43.004;23.052;2023-02-02T06:04:15;93860.19;;;-1.07;100.00
8334;BME280;4204;43.004;23.052;2023-02-02T06:06:43;93865.78;;;-0.98;100.00
8334;BME280;4204;43.004;23.052;2023-02-02T06:09:14;93857.06;;;-0.87;100.00
8334;BME280;4204;43.004;23.052;2023-02-02T06:11:44;93877.78;;;-0.97;100.00
8334;BME280;4204;43.004;23.052;2023-02-02T06:14:12;93881.63;;;-1.05;100.00
8334;BME280;4204;43.004;23.052;2023-02-02T06:16:40;93875.25;;;-0.92;100.00
8334;BME280;4204;43.004;23.052;2023-02-02T06:19:07;93880.31;;;-0.86;100.00
8334;BME280;4204;43.004;23.052;2023-02-02T06:21:35;93881.16;;;-0.80;100.00
8334;BME280;4204;43.004;23.052;2023-02-02T06:24:09;93881.47;;;-0.76;100.00
8334;BME280;4204;43.004;23.052;2023-02-02T06:26:39;93892.25;;;-0.73;100.00
8334;BME280;4204;43.004;23.052;2023-02-02T06:29:11;93888.84;;;-0.52;100.00
8334;BME280;4204;43.004;23.052;2023-02-02T06:31:39;93893.78;;;-0.34;100.00
8334;BME280;4204;43.004;23.052;2023-02-02T06:34:09;93888.72;;;-0.40;100.00
8334;BME280;4204;43.004;23.052;2023-02-02T06:36:38;93884.09;;;-0.55;100.00
8334;BME280;4204;43.004;23.052;2023-02-02T06:39:06;93875.91;;;-0.42;100.00
8334;BME280;4204;43.004;23.052;2023-02-02T06:41:34;93876.22;;;-0.17;100.00
8334;BME280;4204;43.004;23.052;2023-02-02T06:44:02;93884.50;;;0.02;100.00
8334;BME280;4204;43.004;23.052;2023-02-02T06:46:31;93886.31;;;0.02;100.00
8334;BME280;4204;43.004;23.052;2023-02-02T06:48:59;93872.00;;;-0.18;100.00
8334;BME280;4204;43.004;23.052;2023-02-02T06:51:27;93887.38;;;-0.21;100.00
8334;BME280;4204;43.004;23.052;2023-02-02T06:53:54;93883.38;;;-0.29;100.00
8334;BME280;4204;43.004;23.052;2023-02-02T06:56:22;93878.69;;;-0.27;100.00
8334;BME280;4204;43.004;23.052;2023-02-02T06:58:50;93891.38;;;-0.14;100.00
8334;BME280;4204;43.004;23.052;2023-02-02T07:01:17;93885.88;;;-0.17;100.00
8334;BME280;4204;43.004;23.052;2023-02-02T07:03:48;93868.84;;;0.07;100.00
8334;BME280;4204;43.004;23.052;2023-02-02T07:06:18;93870.66;;;0.07;100.00
8334;BME280;4204;43.004;23.052;2023-02-02T07:08:46;93873.06;;;0.08;100.00
8334;BME280;4204;43.004;23.052;2023-02-02T07:11:15;93877.13;;;-0.01;100.00
8334;BME280;4204;43.004;23.052;2023-02-02T07:13:44;93876.31;;;-0.28;100.00
8334;BME280;4204;43.004;23.052;2023-02-02T07:16:13;93869.09;;;-0.21;100.00
8334;BME280;4204;43.004;23.052;2023-02-02T07:18:40;93861.53;;;-0.18;100.00
8334;BME280;4204;43.004;23.052;2023-02-02T07:21:15;93864.34;;;0.03;100.00
8334;BME280;4204;43.004;23.052;2023-02-02T07:23:44;93863.09;;;0.05;100.00
8334;BME280;4204;43.004;23.052;2023-02-02T07:26:12;93873.94;;;0.19;100.00
8334;BME280;4204;43.004;23.052;2023-02-02T07:28:40;93878.47;;;0.28;100.00
8334;BME280;4204;43.004;23.052;2023-02-02T07:31:13;93870.78;;;0.48;100.00
8334;BME280;4204;43.004;23.052;2023-02-02T07:33:41;93883.75;;;0.65;100.00
8334;BME280;4204;43.004;23.052;2023-02-02T07:36:10;93881.28;;;0.85;100.00
8334;BME280;4204;43.004;23.052;2023-02-02T07:38:39;93879.75;;;0.89;100.00
8334;BME280;4204;43.004;23.052;2023-02-02T07:41:07;93860.72;;;0.99;100.00
8334;BME280;4204;43.004;23.052;2023-02-02T07:43:34;93865.47;;;1.07;100.00
8334;BME280;4204;43.004;23.052;2023-02-02T07:46:04;93853.75;;;1.19;100.00
8334;BME280;4204;43.004;23.052;2023-02-02T07:48:33;93851.13;;;1.19;100.00
8334;BME280;4204;43.004;23.052;2023-02-02T07:51:02;93842.31;;;1.30;100.00
8334;BME280;4204;43.004;23.052;2023-02-02T07:53:32;93842.09;;;1.47;100.00
8334;BME280;4204;43.004;23.052;2023-02-02T07:56:08;93842.19;;;1.72;100.00
8334;BME280;4204;43.004;23.052;2023-02-02T07:58:37;93846.19;;;1.95;100.00
8334;BME280;4204;43.004;23.052;2023-02-02T08:01:07;93849.13;;;2.18;100.00
8334;BME280;4204;43.004;23.052;2023-02-02T08:03:36;93857.53;;;2.20;100.00
8334;BME280;4204;43.004;23.052;2023-02-02T08:06:09;93862.00;;;2.35;100.00
8334;BME280;4204;43.004;23.052;2023-02-02T08:08:39;93866.72;;;2.33;100.00
8334;BME280;4204;43.004;23.052;2023-02-02T08:11:07;93865.19;;;2.42;100.00
8334;BME280;4204;43.004;23.052;2023-02-02T08:13:36;93863.06;;;2.59;100.00
8334;BME280;4204;43.004;23.052;2023-02-02T08:16:04;93857.56;;;2.71;100.00
8334;BME280;4204;43.004;23.052;2023-02-02T08:18:32;93854.66;;;2.67;100.00
8334;BME280;4204;43.004;23.052;2023-02-02T08:21:02;93848.38;;;2.78;100.00
8334;BME280;4204;43.004;23.052;2023-02-02T08:23:30;93848.09;;;2.80;100.00
8334;BME280;4204;43.004;23.052;2023-02-02T08:26:07;93836.31;;;2.87;100.00
8334;BME280;4204;43.004;23.052;2023-02-02T08:28:35;93833.41;;;2.84;100.00
8334;BME280;4204;43.004;23.052;2023-02-02T08:31:04;93834.44;;;2.98;100.00
8334;BME280;4204;43.004;23.052;2023-02-02T08:33:32;93841.50;;;3.02;100.00
8334;BME280;4204;43.004;23.052;2023-02-02T08:36:00;93844.66;;;3.09;100.00
8334;BME280;4204;43.004;23.052;2023-02-02T08:38:28;93843.59;;;3.15;100.00
8334;BME280;4204;43.004;23.052;2023-02-02T08:41:04;93845.41;;;3.35;100.00
8334;BME280;4204;43.004;23.052;2023-02-02T08:43:33;93846.16;;;3.41;100.00
8334;BME280;4204;43.004;23.052;2023-02-02T08:46:01;93842.22;;;3.43;100.00
8334;BME280;4204;43.004;23.052;2023-02-02T08:48:28;93846.94;;;3.46;100.00
8334;BME280;4204;43.004;23.052;2023-02-02T08:50:57;93845.59;;;3.59;100.00
8334;BME280;4204;43.004;23.052;2023-02-02T08:53:30;93845.31;;;3.65;100.00
8334;BME280;4204;43.004;23.052;2023-02-02T08:55:58;93849.25;;;3.68;100.00
8334;BME280;4204;43.004;23.052;2023-02-02T08:58:29;93846.00;;;3.86;100.00
8334;BME280;4204;43.004;23.052;2023-02-02T09:01:05;93842.53;;;3.95;100.00
8334;BME280;4204;43.004;23.052;2023-02-02T09:03:33;93843.03;;;4.02;100.00
8334;BME280;4204;43.004;23.052;2023-02-02T09:06:05;93848.75;;;4.15;100.00
8334;BME280;4204;43.004;23.052;2023-02-02T09:08:33;93843.25;;;4.06;100.00
8334;BME280;4204;43.004;23.052;2023-02-02T09:11:06;93847.50;;;4.02;100.00
8334;BME280;4204;43.004;23.052;2023-02-02T09:13:36;93844.78;;;4.17;100.00
8334;BME280;4204;43.004;23.052;2023-02-02T09:16:06;93838.38;;;4.33;100.00
8334;BME280;4204;43.004;23.052;2023-02-02T09:18:35;93844.72;;;4.32;100.00
8334;BME280;4204;43.004;23.052;2023-02-02T09:21:05;93850.88;;;4.51;100.00
8334;BME280;4204;43.004;23.052;2023-02-02T09:23:34;93836.34;;;4.59;100.00
8334;BME280;4204;43.004;23.052;2023-02-02T09:26:10;93841.22;;;4.75;100.00
8334;BME280;4204;43.004;23.052;2023-02-02T09:28:40;93853.09;;;4.73;100.00
8334;BME280;4204;43.004;23.052;2023-02-02T09:31:08;93846.00;;;4.73;100.00
8334;BME280;4204;43.004;23.052;2023-02-02T09:33:36;93838.03;;;4.78;100.00
8334;BME280;4204;43.004;23.052;2023-02-02T09:36:06;93835.81;;;4.90;100.00
8334;BME280;4204;43.004;23.052;2023-02-02T09:38:34;93831.16;;;4.82;100.00
8334;BME280;4204;43.004;23.052;2023-02-02T09:41:33;93834.97;;;5.00;100.00
8334;BME280;4204;43.004;23.052;2023-02-02T09:44:11;93829.41;;;5.02;100.00
8334;BME280;4204;43.004;23.052;2023-02-02T09:46:49;93814.59;;;5.06;100.00
8334;BME280;4204;43.004;23.052;2023-02-02T09:49:27;93818.72;;;5.17;100.00
8334;BME280;4204;43.004;23.052;2023-02-02T09:52:03;93819.22;;;5.19;100.00
8334;BME280;4204;43.004;23.052;2023-02-02T09:54:39;93811.88;;;5.16;100.00
8334;BME280;4204;43.004;23.052;2023-02-02T09:57:14;93802.94;;;5.12;100.00
8334;BME280;4204;43.004;23.052;2023-02-02T09:59:47;93805.75;;;5.20;100.00
8334;BME280;4204;43.004;23.052;2023-02-02T10:02:18;93798.00;;;5.34;100.00
8334;BME280;4204;43.004;23.052;2023-02-02T10:04:50;93799.25;;;5.36;100.00
8334;BME280;4204;43.004;23.052;2023-02-02T10:07:26;93786.81;;;5.42;100.00
8334;BME280;4204;43.004;23.052;2023-02-02T10:09:58;93781.03;;;5.40;100.00
8334;BME280;4204;43.004;23.052;2023-02-02T10:12:33;93778.81;;;5.47;100.00
8334;BME280;4204;43.004;23.052;2023-02-02T10:15:14;93766.16;;;5.49;100.00
8334;BME280;4204;43.004;23.052;2023-02-02T10:17:50;93762.38;;;5.55;100.00
8334;BME280;4204;43.004;23.052;2023-02-02T10:20:35;93760.25;;;5.57;100.00
8334;BME280;4204;43.004;23.052;2023-02-02T10:23:12;93764.47;;;5.58;100.00
8334;BME280;4204;43.004;23.052;2023-02-02T10:25:48;93757.06;;;5.60;100.00
8334;BME280;4204;43.004;23.052;2023-02-02T10:28:19;93762.25;;;5.65;100.00
8334;BME280;4204;43.004;23.052;2023-02-02T10:30:58;93763.53;;;5.67;100.00
8334;BME280;4204;43.004;23.052;2023-02-02T10:33:33;93773.75;;;5.74;100.00
8334;BME280;4204;43.004;23.052;2023-02-02T10:36:11;93765.28;;;5.77;100.00
8334;BME280;4204;43.004;23.052;2023-02-02T10:38:46;93770.31;;;5.73;100.00
8334;BME280;4204;43.004;23.052;2023-02-02T10:41:24;93764.00;;;5.74;100.00
8334;BME280;4204;43.004;23.052;2023-02-02T10:44:10;93751.50;;;5.80;100.00
8334;BME280;4204;43.004;23.052;2023-02-02T10:46:44;93746.47;;;5.84;100.00
8334;BME280;4204;43.004;23.052;2023-02-02T10:49:23;93731.41;;;5.84;100.00
8334;BME280;4204;43.004;23.052;2023-02-02T10:51:56;93719.72;;;5.90;100.00
8334;BME280;4204;43.004;23.052;2023-02-02T10:54:38;93719.06;;;5.98;100.00
8334;BME280;4204;43.004;23.052;2023-02-02T10:57:09;93725.22;;;5.94;100.00
8334;BME280;4204;43.004;23.052;2023-02-02T10:59:44;93719.66;;;5.95;100.00
8334;BME280;4204;43.004;23.052;2023-02-02T11:02:14;93725.44;;;5.97;100.00
8334;BME280;4204;43.004;23.052;2023-02-02T11:04:42;93717.94;;;6.04;100.00
8334;BME280;4204;43.004;23.052;2023-02-02T11:07:27;93714.72;;;6.07;100.00
8334;BME280;4204;43.004;23.052;2023-02-02T11:09:55;93713.00;;;6.16;100.00
8334;BME280;4204;43.004;23.052;2023-02-02T11:12:27;93715.19;;;6.28;100.00
8334;BME280;4204;43.004;23.052;2023-02-02T11:14:59;93709.72;;;6.24;100.00
8334;BME280;4204;43.004;23.052;2023-02-02T11:17:32;93705.47;;;6.10;100.00
8334;BME280;4204;43.004;23.052;2023-02-02T11:20:00;93704.13;;;6.26;100.00
8334;BME280;4204;43.004;23.052;2023-02-02T11:22:30;93699.47;;;6.36;100.00
8334;BME280;4204;43.004;23.052;2023-02-02T11:25:02;93694.69;;;6.38;100.00
8334;BME280;4204;43.004;23.052;2023-02-02T11:27:32;93675.13;;;6.39;100.00
8334;BME280;4204;43.004;23.052;2023-02-02T11:30:11;93667.34;;;6.62;100.00
8334;BME280;4204;43.004;23.052;2023-02-02T11:32:40;93663.25;;;6.69;100.00
8334;BME280;4204;43.004;23.052;2023-02-02T11:35:20;93663.66;;;6.76;100.00
8334;BME280;4204;43.004;23.052;2023-02-02T11:37:57;93670.78;;;6.76;100.00
8334;BME280;4204;43.004;23.052;2023-02-02T11:40:33;93666.56;;;6.75;100.00
8334;BME280;4204;43.004;23.052;2023-02-02T11:43:04;93656.78;;;6.75;100.00
8334;BME280;4204;43.004;23.052;2023-02-02T11:45:35;93669.13;;;6.80;100.00
8334;BME280;4204;43.004;23.052;2023-02-02T11:48:10;93656.78;;;6.75;100.00
8334;BME280;4204;43.004;23.052;2023-02-02T11:50:44;93657.28;;;6.77;100.00
8334;BME280;4204;43.004;23.052;2023-02-02T11:53:25;93628.78;;;6.88;100.00
8334;BME280;4204;43.004;23.052;2023-02-02T11:55:54;93629.97;;;6.95;100.00
8334;BME280;4204;43.004;23.052;2023-02-02T11:58:24;93629.09;;;7.00;100.00
8334;BME280;4204;43.004;23.052;2023-02-02T12:00:59;93631.25;;;7.11;100.00
8334;BME280;4204;43.004;23.052;2023-02-02T12:03:31;93628.50;;;7.16;100.00
8334;BME280;4204;43.004;23.052;2023-02-02T12:06:00;93636.63;;;7.20;100.00
8334;BME280;4204;43.004;23.052;2023-02-02T12:08:29;93636.03;;;7.23;100.00
8334;BME280;4204;43.004;23.052;2023-02-02T12:10:59;93633.06;;;7.24;100.00
8334;BME280;4204;43.004;23.052;2023-02-02T12:13:38;93635.44;;;7.26;100.00
8334;BME280;4204;43.004;23.052;2023-02-02T12:16:33;93636.03;;;7.37;100.00
8334;BME280;4204;43.004;23.052;2023-02-02T12:19:21;93625.63;;;7.40;100.00
8334;BME280;4204;43.004;23.052;2023-02-02T12:22:01;93634.06;;;7.15;100.00
8334;BME280;4204;43.004;23.052;2023-02-02T12:24:33;93629.84;;;7.14;100.00
8334;BME280;4204;43.004;23.052;2023-02-02T12:27:11;93630.25;;;7.21;100.00
8334;BME280;4204;43.004;23.052;2023-02-02T12:29:56;93619.28;;;7.27;100.00
8334;BME280;4204;43.004;23.052;2023-02-02T12:32:43;93629.94;;;7.36;100.00
8334;BME280;4204;43.004;23.052;2023-02-02T12:35:27;93617.38;;;7.55;100.00
8334;BME280;4204;43.004;23.052;2023-02-02T12:38:04;93611.41;;;7.72;100.00
8334;BME280;4204;43.004;23.052;2023-02-02T12:40:49;93610.50;;;7.76;100.00
8334;BME280;4204;43.004;23.052;2023-02-02T12:43:33;93612.50;;;7.71;100.00
8334;BME280;4204;43.004;23.052;2023-02-02T12:46:20;93622.53;;;7.60;100.00
8334;BME280;4204;43.004;23.052;2023-02-02T12:49:00;93613.53;;;7.48;100.00
8334;BME280;4204;43.004;23.052;2023-02-02T12:51:44;93608.72;;;7.50;100.00
8334;BME280;4204;43.004;23.052;2023-02-02T12:54:28;93619.72;;;7.43;100.00
8334;BME280;4204;43.004;23.052;2023-02-02T12:57:02;93611.53;;;7.31;100.00
8334;BME280;4204;43.004;23.052;2023-02-02T12:59:59;93604.63;;;7.44;100.00
8334;BME280;4204;43.004;23.052;2023-02-02T13:02:34;93607.59;;;7.42;100.00
8334;BME280;4204;43.004;23.052;2023-02-02T13:05:28;93601.53;;;7.64;100.00
8334;BME280;4204;43.004;23.052;2023-02-02T13:08:02;93604.63;;;7.57;100.00
8334;BME280;4204;43.004;23.052;2023-02-02T13:10:35;93597.91;;;7.60;100.00
8334;BME280;4204;43.004;23.052;2023-02-02T13:13:08;93594.56;;;7.68;100.00
8334;BME280;4204;43.004;23.052;2023-02-02T13:15:41;93602.41;;;7.73;100.00
8334;BME280;4204;43.004;23.052;2023-02-02T13:18:13;93592.69;;;7.68;100.00
8334;BME280;4204;43.004;23.052;2023-02-02T13:20:46;93593.78;;;7.67;100.00
8334;BME280;4204;43.004;23.052;2023-02-02T13:23:19;93597.09;;;7.73;100.00
8334;BME280;4204;43.004;23.052;2023-02-02T13:25:52;93592.53;;;7.65;100.00
8334;BME280;4204;43.004;23.052;2023-02-02T13:28:37;93593.59;;;7.64;100.00
8334;BME280;4204;43.004;23.052;2023-02-02T13:31:21;93600.22;;;7.53;100.00
8334;BME280;4204;43.004;23.052;2023-02-02T13:34:10;93607.59;;;7.42;100.00
8334;BME280;4204;43.004;23.052;2023-02-02T13:36:43;93605.91;;;7.32;100.00